createdAt,value
2023-08-10T00:01:07.092Z,86.45
2023-08-10T00:03:36.421Z,86.42
2023-08-10T00:06:04.267Z,86.32
2023-08-10T00:08:32.106Z,86.29
2023-08-10T00:10:59.910Z,86.45
2023-08-10T00:13:28.054Z,86.32
2023-08-10T00:15:56.221Z,86.16
2023-08-10T00:18:23.956Z,86.11
2023-08-10T00:20:52.162Z,86.38
2023-08-10T00:23:20.274Z,86.38
2023-08-10T00:25:49.056Z,86.08
2023-08-10T00:28:16.850Z,86.03
2023-08-10T00:30:44.773Z,86.07
2023-08-10T00:33:17.976Z,86.35
2023-08-10T00:35:52.295Z,86.90
2023-08-10T00:38:20.061Z,86.60
2023-08-10T00:40:48.138Z,86.85
2023-08-10T00:43:15.879Z,86.55
2023-08-10T00:45:43.837Z,86.64
2023-08-10T00:48:11.815Z,86.66
2023-08-10T00:50:39.896Z,86.49
2023-08-10T00:53:07.750Z,86.38
2023-08-10T00:55:35.916Z,86.52
2023-08-10T00:58:03.921Z,86.25
2023-08-10T01:00:31.788Z,85.82
2023-08-10T01:02:59.807Z,86.28
2023-08-10T01:05:34.483Z,86.75
2023-08-10T01:08:11.795Z,86.65
2023-08-10T01:11:21.013Z,86.38
2023-08-10T01:13:59.338Z,86.58
2023-08-10T01:16:29.377Z,86.79
2023-08-10T01:18:58.458Z,86.83
2023-08-10T01:22:02.949Z,86.86
2023-08-10T01:24:34.429Z,87.08
2023-08-10T01:27:03.325Z,86.91
2023-08-10T01:29:31.409Z,87.11
2023-08-10T01:31:59.379Z,86.97
2023-08-10T01:34:27.329Z,87.25
2023-08-10T01:36:55.808Z,87.34
2023-08-10T01:39:23.618Z,87.18
2023-08-10T01:41:51.539Z,87.44
2023-08-10T01:44:19.510Z,87.29
2023-08-10T01:46:48.907Z,87.21
2023-08-10T01:49:20.564Z,87.25
2023-08-10T01:51:50.888Z,87.09
2023-08-10T01:54:21.523Z,86.92
2023-08-10T01:56:49.381Z,87.06
2023-08-10T01:59:17.247Z,87.69
2023-08-10T02:01:45.144Z,87.39
2023-08-10T02:04:13.204Z,87.65
2023-08-10T02:06:41.991Z,87.44
2023-08-10T02:09:10.150Z,87.49
2023-08-10T02:11:38.125Z,87.84
2023-08-10T02:14:06.286Z,87.43
2023-08-10T02:16:34.156Z,87.14
2023-08-10T02:19:02.039Z,87.29
2023-08-10T02:21:29.999Z,87.73
2023-08-10T02:23:57.874Z,87.52
2023-08-10T02:26:25.830Z,87.81
2023-08-10T02:28:53.628Z,87.60
2023-08-10T02:31:22.631Z,87.63
2023-08-10T02:33:50.553Z,87.62
2023-08-10T02:36:18.424Z,87.59
2023-08-10T02:38:46.221Z,87.95
2023-08-10T02:41:14.150Z,87.77
2023-08-10T02:43:42.362Z,87.63
2023-08-10T02:46:10.374Z,87.32
2023-08-10T02:48:38.467Z,87.21
2023-08-10T02:51:06.255Z,87.29
2023-08-10T02:53:34.198Z,87.25
2023-08-10T02:56:02.170Z,87.29
2023-08-10T02:58:30.232Z,87.69
2023-08-10T03:00:58.121Z,87.30
2023-08-10T03:03:27.400Z,87.15
2023-08-10T03:05:55.301Z,87.07
2023-08-10T03:08:23.231Z,87.39
2023-08-10T03:10:51.712Z,87.33
2023-08-10T03:13:19.682Z,87.32
2023-08-10T03:15:47.586Z,87.42
2023-08-10T03:18:15.516Z,87.50
2023-08-10T03:20:43.803Z,87.76
2023-08-10T03:23:11.660Z,87.38
2023-08-10T03:25:39.528Z,87.26
2023-08-10T03:28:07.505Z,87.81
2023-08-10T03:30:37.630Z,87.56
2023-08-10T03:33:05.779Z,87.44
2023-08-10T03:35:34.067Z,87.53
2023-08-10T03:38:01.970Z,87.58
2023-08-10T03:40:29.997Z,87.60
2023-08-10T03:42:57.893Z,87.81
2023-08-10T03:45:25.830Z,87.83
2023-08-10T03:47:53.679Z,87.41
2023-08-10T03:50:21.794Z,87.81
2023-08-10T03:52:49.766Z,87.80
2023-08-10T03:55:20.125Z,88.09
2023-08-10T03:57:48.026Z,88.21
2023-08-10T04:00:17.589Z,88.39
2023-08-10T04:02:45.829Z,88.09
2023-08-10T04:05:14.094Z,87.56
2023-08-10T04:07:42.049Z,87.30
2023-08-10T04:10:11.450Z,87.51
2023-08-10T04:12:40.013Z,87.78
2023-08-10T04:15:08.594Z,87.94
2023-08-10T04:17:37.804Z,88.10
2023-08-10T04:20:10.588Z,88.19
2023-08-10T04:22:38.729Z,88.46
2023-08-10T04:25:08.582Z,88.28
2023-08-10T04:27:36.848Z,88.61
2023-08-10T04:30:05.708Z,88.49
2023-08-10T04:32:33.849Z,88.43
2023-08-10T04:35:01.908Z,88.61
2023-08-10T04:37:29.795Z,88.41
2023-08-10T04:39:57.990Z,88.11
2023-08-10T04:42:25.802Z,88.33
2023-08-10T04:44:53.599Z,88.84
2023-08-10T04:47:21.445Z,88.34
2023-08-10T04:49:49.227Z,88.17
2023-08-10T04:52:16.995Z,88.28
2023-08-10T04:54:45.410Z,88.08
2023-08-10T04:57:13.176Z,88.06
2023-08-10T04:59:40.991Z,88.35
2023-08-10T05:02:09.926Z,88.47
2023-08-10T05:04:37.762Z,88.12
2023-08-10T05:07:05.793Z,88.47
2023-08-10T05:09:42.540Z,88.11
2023-08-10T05:12:21.305Z,87.83
2023-08-10T05:14:49.313Z,88.46
2023-08-10T05:17:17.296Z,87.91
2023-08-10T05:19:45.274Z,88.50
2023-08-10T05:22:13.081Z,88.35
2023-08-10T05:24:41.416Z,88.42
2023-08-10T05:27:09.227Z,88.12
2023-08-10T05:29:37.071Z,88.22
2023-08-10T05:32:05.159Z,87.97
2023-08-10T05:34:33.206Z,88.24
2023-08-10T05:37:01.007Z,87.82
2023-08-10T05:39:29.310Z,88.20
2023-08-10T05:41:57.152Z,88.05
2023-08-10T05:44:24.901Z,88.01
2023-08-10T05:46:52.939Z,87.99
2023-08-10T05:49:20.757Z,88.60
2023-08-10T05:51:48.613Z,88.32
2023-08-10T05:54:16.474Z,88.40
2023-08-10T05:56:44.307Z,88.98
2023-08-10T05:59:12.200Z,88.60
2023-08-10T06:01:44.515Z,88.47
2023-08-10T06:04:12.620Z,88.32
2023-08-10T06:06:40.430Z,88.56
2023-08-10T06:09:12.544Z,88.81
2023-08-10T06:11:48.177Z,88.70
2023-08-10T06:14:16.683Z,88.72
2023-08-10T06:16:44.665Z,88.85
2023-08-10T06:19:12.439Z,88.64
2023-08-10T06:21:40.256Z,88.45
2023-08-10T06:24:10.533Z,88.47
2023-08-10T06:26:38.492Z,88.31
2023-08-10T06:29:06.505Z,88.23
2023-08-10T06:31:34.567Z,88.32
2023-08-10T06:34:04.257Z,88.04
2023-08-10T06:36:32.413Z,88.26
2023-08-10T06:39:00.288Z,88.15
2023-08-10T06:41:28.853Z,88.13
2023-08-10T06:43:57.010Z,88.05
2023-08-10T06:46:24.869Z,88.00
2023-08-10T06:48:52.765Z,87.88
2023-08-10T06:51:20.631Z,87.98
2023-08-10T06:53:48.524Z,87.64
2023-08-10T06:56:17.284Z,87.54
2023-08-10T06:59:19.443Z,87.53
2023-08-10T07:01:32.878Z,87.61
2023-08-10T07:04:03.738Z,87.56
2023-08-10T07:06:32.865Z,87.35
2023-08-10T07:09:00.720Z,87.32
2023-08-10T07:11:28.599Z,87.29
2023-08-10T07:13:56.506Z,86.94
2023-08-10T07:16:24.912Z,87.12
2023-08-10T07:18:52.868Z,87.04
2023-08-10T07:21:21.667Z,86.74
2023-08-10T07:23:49.890Z,86.83
2023-08-10T07:26:17.827Z,86.48
2023-08-10T07:28:48.570Z,86.27
2023-08-10T07:31:16.938Z,86.33
2023-08-10T07:33:44.794Z,86.10
2023-08-10T07:36:13.350Z,85.97
2023-08-10T07:38:41.863Z,85.81
2023-08-10T07:41:09.766Z,85.70
2023-08-10T07:43:37.569Z,84.69
2023-08-10T07:46:05.461Z,84.87
2023-08-10T07:48:33.475Z,84.75
2023-08-10T07:51:02.415Z,83.42
2023-08-10T07:53:30.832Z,83.99
2023-08-10T07:56:01.207Z,84.10
2023-08-10T07:58:32.683Z,83.44
2023-08-10T08:01:15.686Z,82.81
2023-08-10T08:03:45.093Z,83.13
2023-08-10T08:06:15.722Z,82.40
2023-08-10T08:08:44.652Z,82.38
2023-08-10T08:11:30.633Z,81.38
2023-08-10T08:14:00.270Z,80.65
2023-08-10T08:16:30.793Z,79.88
2023-08-10T08:19:02.294Z,79.35
2023-08-10T08:21:32.757Z,77.71
2023-08-10T08:24:02.297Z,77.31
2023-08-10T08:26:31.792Z,77.86
2023-08-10T08:29:01.717Z,77.60
2023-08-10T08:31:29.781Z,77.76
2023-08-10T08:33:59.031Z,77.41
2023-08-10T08:36:27.192Z,76.59
2023-08-10T08:38:57.916Z,76.36
2023-08-10T08:41:36.893Z,74.96
2023-08-10T08:44:08.190Z,75.18
2023-08-10T08:46:45.124Z,74.47
2023-08-10T08:49:13.519Z,73.79
2023-08-10T08:51:51.299Z,72.69
2023-08-10T08:54:22.456Z,70.22
2023-08-10T08:57:04.697Z,69.58
2023-08-10T08:59:34.272Z,69.22
2023-08-10T09:02:16.312Z,68.97
2023-08-10T09:04:45.981Z,66.26
2023-08-10T09:07:14.156Z,66.06
2023-08-10T09:09:43.177Z,67.42
2023-08-10T09:12:34.377Z,67.98
2023-08-10T09:15:06.510Z,66.87
2023-08-10T09:17:37.920Z,63.73
2023-08-10T09:20:10.302Z,64.77
2023-08-10T09:22:40.128Z,63.84
2023-08-10T09:25:08.566Z,63.41
2023-08-10T09:27:38.850Z,62.68
2023-08-10T09:30:08.873Z,63.33
2023-08-10T09:32:50.074Z,60.92
2023-08-10T09:35:20.514Z,60.56
2023-08-10T09:37:49.728Z,61.14
2023-08-10T09:40:18.617Z,61.45
2023-08-10T09:42:49.916Z,60.77
2023-08-10T09:45:19.418Z,60.68
2023-08-10T09:47:52.330Z,59.37
2023-08-10T09:50:25.816Z,57.66
2023-08-10T09:52:55.667Z,54.77
2023-08-10T09:55:24.114Z,56.75
2023-08-10T09:57:53.561Z,55.64
2023-08-10T10:00:24.563Z,55.15
2023-08-10T10:02:55.543Z,52.07
2023-08-10T10:08:01.625Z,53.76
2023-08-10T10:10:32.433Z,54.90
2023-08-10T10:13:02.314Z,53.57
2023-08-10T10:15:32.093Z,54.16
2023-08-10T10:18:00.309Z,53.63
2023-08-10T10:20:28.944Z,54.16
2023-08-10T10:22:56.928Z,54.63
2023-08-10T10:25:24.860Z,54.34
2023-08-10T10:27:55.849Z,53.46
2023-08-10T10:30:25.340Z,54.31
2023-08-10T10:32:54.093Z,54.40
2023-08-10T10:35:30.772Z,54.82
2023-08-10T10:37:59.985Z,54.82
2023-08-10T10:40:28.731Z,54.92
2023-08-10T10:43:07.107Z,55.08
2023-08-10T10:45:36.169Z,55.37
2023-08-10T10:48:07.099Z,55.40
2023-08-10T10:50:36.284Z,55.02
2023-08-10T10:53:17.092Z,54.61
2023-08-10T10:55:46.711Z,54.53
2023-08-10T10:58:18.222Z,53.60
2023-08-10T11:00:49.638Z,53.40
2023-08-10T11:03:21.103Z,53.15
2023-08-10T11:05:49.404Z,52.89
2023-08-10T11:08:17.344Z,52.27
2023-08-10T11:10:45.882Z,52.01
2023-08-10T11:13:14.370Z,50.34
2023-08-10T11:15:47.653Z,50.46
2023-08-10T11:18:15.758Z,50.43
2023-08-10T11:20:49.064Z,50.65
2023-08-10T11:23:17.006Z,50.75
2023-08-10T11:25:50.668Z,50.82
2023-08-10T11:28:20.593Z,50.36
2023-08-10T11:30:49.724Z,47.63
2023-08-10T11:35:52.999Z,49.07
2023-08-10T11:38:21.707Z,49.33
2023-08-10T11:40:49.827Z,48.61
2023-08-10T11:43:21.624Z,46.93
2023-08-10T11:45:50.240Z,46.04
2023-08-10T11:48:20.846Z,45.88
2023-08-10T11:50:59.325Z,44.30
2023-08-10T11:53:40.475Z,44.54
2023-08-10T11:56:10.250Z,46.43
2023-08-10T11:58:41.269Z,46.52
2023-08-10T12:01:10.780Z,46.06
2023-08-10T12:03:51.025Z,44.89
2023-08-10T12:06:20.005Z,46.09
2023-08-10T12:08:58.265Z,45.57
2023-08-10T12:11:27.814Z,45.08
2023-08-10T12:13:55.902Z,44.90
2023-08-10T12:16:24.440Z,45.12
2023-08-10T12:18:53.188Z,44.80
2023-08-10T12:21:21.327Z,44.62
2023-08-10T12:23:49.426Z,45.02
2023-08-10T12:26:18.104Z,43.75
2023-08-10T12:31:18.727Z,43.44
2023-08-10T12:33:47.073Z,43.77
2023-08-10T12:36:15.121Z,43.39
2023-08-10T12:38:43.439Z,43.14
2023-08-10T12:41:12.909Z,42.98
2023-08-10T12:43:41.031Z,43.58
2023-08-10T12:46:09.227Z,43.90
2023-08-10T12:48:37.802Z,43.96
2023-08-10T12:51:09.210Z,44.43
2023-08-10T12:53:37.633Z,44.68
2023-08-10T12:56:05.913Z,44.50
2023-08-10T12:58:33.953Z,44.40
2023-08-10T13:01:02.129Z,43.80
2023-08-10T13:03:32.595Z,43.61
2023-08-10T13:06:00.825Z,43.55
2023-08-10T13:08:29.137Z,44.16
2023-08-10T13:10:57.014Z,44.55
2023-08-10T13:13:24.969Z,44.86
2023-08-10T13:15:52.952Z,44.80
2023-08-10T13:18:21.076Z,44.63
2023-08-10T13:20:49.086Z,44.53
2023-08-10T13:23:16.941Z,43.74
2023-08-10T13:25:44.903Z,43.51
2023-08-10T13:28:12.966Z,43.45
2023-08-10T13:30:41.584Z,42.92
2023-08-10T13:33:09.641Z,42.68
2023-08-10T13:35:37.879Z,42.48
2023-08-10T13:38:05.673Z,42.40
2023-08-10T13:40:33.715Z,42.81
2023-08-10T13:43:01.896Z,42.58
2023-08-10T13:45:29.997Z,42.16
2023-08-10T13:47:58.060Z,42.31
2023-08-10T13:50:28.668Z,41.57
2023-08-10T13:52:56.656Z,41.69
2023-08-10T13:55:26.026Z,41.86
2023-08-10T13:57:54.103Z,41.91
2023-08-10T14:00:22.167Z,42.27
2023-08-10T14:02:50.367Z,42.05
2023-08-10T14:05:18.529Z,41.41
2023-08-10T14:07:46.687Z,39.83
2023-08-10T14:10:14.771Z,40.99
2023-08-10T14:12:43.301Z,40.66
2023-08-10T14:15:11.822Z,40.24
2023-08-10T14:17:39.804Z,40.97
2023-08-10T14:20:09.448Z,40.50
2023-08-10T14:22:37.919Z,40.31
2023-08-10T14:25:06.364Z,41.14
2023-08-10T14:27:34.344Z,40.31
2023-08-10T14:30:02.434Z,39.75
2023-08-10T14:32:30.820Z,40.10
2023-08-10T14:34:58.853Z,40.32
2023-08-10T14:37:27.526Z,39.91
2023-08-10T14:39:55.704Z,39.91
2023-08-10T14:42:23.766Z,40.18
2023-08-10T14:44:52.951Z,40.25
2023-08-10T14:47:21.428Z,40.41
2023-08-10T14:49:49.514Z,40.67
2023-08-10T14:52:17.494Z,40.43
2023-08-10T14:54:45.352Z,39.65
2023-08-10T14:57:13.331Z,39.71
2023-08-10T14:59:42.516Z,39.34
2023-08-10T15:02:10.676Z,39.91
2023-08-10T15:04:38.859Z,39.82
2023-08-10T15:07:06.966Z,39.91
2023-08-10T15:09:35.099Z,39.99
2023-08-10T15:12:03.833Z,39.80
2023-08-10T15:14:32.092Z,40.05
2023-08-10T15:17:00.025Z,39.77
2023-08-10T15:19:27.926Z,39.76
2023-08-10T15:21:55.969Z,39.70
2023-08-10T15:24:23.795Z,39.85
2023-08-10T15:26:51.699Z,39.74
2023-08-10T15:29:19.566Z,39.86
2023-08-10T15:31:47.440Z,39.85
2023-08-10T15:34:15.409Z,39.98
2023-08-10T15:36:43.193Z,39.47
2023-08-10T15:39:11.154Z,39.11
2023-08-10T15:41:39.204Z,39.39
2023-08-10T15:44:07.096Z,39.20
2023-08-10T15:46:35.265Z,39.28
2023-08-10T15:49:03.249Z,38.99
2023-08-10T15:51:31.042Z,38.89
2023-08-10T15:53:59.719Z,39.00
2023-08-10T15:56:28.493Z,39.18
2023-08-10T15:58:57.643Z,38.99
2023-08-10T16:01:26.442Z,39.19
2023-08-10T16:03:56.959Z,39.21
2023-08-10T16:06:39.996Z,39.27
2023-08-10T16:09:11.149Z,38.31
2023-08-10T16:11:42.258Z,38.68
2023-08-10T16:14:13.510Z,38.68
2023-08-10T16:16:42.398Z,39.06
2023-08-10T16:19:15.079Z,39.10
2023-08-10T16:21:44.077Z,39.28
2023-08-10T16:24:16.042Z,39.36
2023-08-10T16:26:45.850Z,39.34
2023-08-10T16:29:14.236Z,39.28
2023-08-10T16:31:44.687Z,39.24
2023-08-10T16:34:13.247Z,39.06
2023-08-10T16:36:41.720Z,38.99
2023-08-10T16:39:12.654Z,39.16
2023-08-10T16:41:48.206Z,39.61
2023-08-10T16:44:20.886Z,39.71
2023-08-10T16:46:49.256Z,39.74
2023-08-10T16:49:17.246Z,39.94
2023-08-10T16:51:46.735Z,40.17
2023-08-10T16:54:17.673Z,40.42
2023-08-10T16:56:47.999Z,40.43
2023-08-10T16:59:16.679Z,41.26
2023-08-10T17:01:56.842Z,41.19
2023-08-10T17:04:25.720Z,41.28
2023-08-10T17:06:54.005Z,41.58
2023-08-10T17:09:22.523Z,42.10
2023-08-10T17:11:50.961Z,42.19
2023-08-10T17:14:19.230Z,42.42
2023-08-10T17:16:47.643Z,42.64
2023-08-10T17:19:16.294Z,43.31
2023-08-10T17:21:44.612Z,43.90
2023-08-10T17:24:13.397Z,44.16
2023-08-10T17:26:41.646Z,44.59
2023-08-10T17:29:19.592Z,44.79
2023-08-10T17:31:49.654Z,44.68
2023-08-10T17:34:18.333Z,45.08
2023-08-10T17:36:48.555Z,46.00
2023-08-10T17:39:17.237Z,45.88
2023-08-10T17:41:48.082Z,46.40
2023-08-10T17:44:16.862Z,46.60
2023-08-10T17:46:45.482Z,46.74
2023-08-10T17:49:14.275Z,47.87
2023-08-10T17:51:42.670Z,48.88
2023-08-10T17:54:11.457Z,48.93
2023-08-10T17:56:39.375Z,49.48
2023-08-10T17:59:07.254Z,49.93
2023-08-10T18:01:38.634Z,50.28
2023-08-10T18:04:06.958Z,51.66
2023-08-10T18:06:35.036Z,52.35
2023-08-10T18:09:03.207Z,51.83
2023-08-10T18:11:31.377Z,52.10
2023-08-10T18:14:01.853Z,52.01
2023-08-10T18:16:31.191Z,52.96
2023-08-10T18:18:59.107Z,52.12
2023-08-10T18:21:27.105Z,52.88
2023-08-10T18:23:56.649Z,52.20
2023-08-10T18:26:25.870Z,52.38
2023-08-10T18:28:53.956Z,52.44
2023-08-10T18:31:22.428Z,53.09
2023-08-10T18:33:50.564Z,53.03
2023-08-10T18:36:18.444Z,53.77
2023-08-10T18:38:46.595Z,53.78
2023-08-10T18:41:17.497Z,54.34
2023-08-10T18:43:45.555Z,54.40
2023-08-10T18:46:13.687Z,54.51
2023-08-10T18:48:41.611Z,54.81
2023-08-10T18:51:09.538Z,54.37
2023-08-10T18:53:37.403Z,55.63
2023-08-10T18:56:05.348Z,55.02
2023-08-10T18:58:33.171Z,55.23
2023-08-10T19:01:01.024Z,55.44
2023-08-10T19:03:29.173Z,56.36
2023-08-10T19:05:56.983Z,56.24
2023-08-10T19:08:24.979Z,56.81
2023-08-10T19:10:57.041Z,57.14
2023-08-10T19:13:26.317Z,56.64
2023-08-10T19:16:05.256Z,56.35
2023-08-10T19:18:35.318Z,56.44
2023-08-10T19:21:08.128Z,58.09
2023-08-10T19:23:36.408Z,58.44
2023-08-10T19:26:04.885Z,58.09
2023-08-10T19:28:36.063Z,58.49
2023-08-10T19:31:08.848Z,58.89
2023-08-10T19:33:38.329Z,59.03
2023-08-10T19:36:06.528Z,59.07
2023-08-10T19:38:34.447Z,58.96
2023-08-10T19:41:02.302Z,59.42
2023-08-10T19:43:30.291Z,59.65
2023-08-10T19:45:59.557Z,59.53
2023-08-10T19:48:27.727Z,59.55
2023-08-10T19:50:55.777Z,60.55
2023-08-10T19:53:23.757Z,61.15
2023-08-10T19:55:52.203Z,61.11
2023-08-10T19:58:22.167Z,61.45
2023-08-10T20:00:50.036Z,62.85
2023-08-10T20:03:17.997Z,61.89
2023-08-10T20:05:47.155Z,60.87
2023-08-10T20:08:16.736Z,62.00
2023-08-10T20:10:46.697Z,62.95
2023-08-10T20:13:17.535Z,63.83
2023-08-10T20:15:46.673Z,63.82
2023-08-10T20:18:14.925Z,63.54
2023-08-10T20:20:46.070Z,64.91
2023-08-10T20:23:15.324Z,65.09
2023-08-10T20:25:43.918Z,65.03
2023-08-10T20:28:21.540Z,65.77
2023-08-10T20:30:51.004Z,65.91
2023-08-10T20:33:23.198Z,66.09
2023-08-10T20:35:54.106Z,66.30
2023-08-10T20:38:22.588Z,64.58
2023-08-10T20:40:53.117Z,65.36
2023-08-10T20:43:23.891Z,68.70
2023-08-10T20:45:54.305Z,66.53
2023-08-10T20:48:23.480Z,64.94
2023-08-10T20:50:54.926Z,64.94
2023-08-10T20:53:25.583Z,67.47
2023-08-10T20:55:55.569Z,66.48
2023-08-10T20:58:26.500Z,68.08
2023-08-10T21:00:56.455Z,67.41
2023-08-10T21:03:27.029Z,66.89
2023-08-10T21:05:57.574Z,67.98
2023-08-10T21:08:41.847Z,69.00
2023-08-10T21:11:10.415Z,67.40
2023-08-10T21:13:40.933Z,67.39
2023-08-10T21:16:11.609Z,66.85
2023-08-10T21:18:45.314Z,67.55
2023-08-10T21:21:22.147Z,69.23
2023-08-10T21:23:55.142Z,68.67
2023-08-10T21:26:26.808Z,67.43
2023-08-10T21:28:56.034Z,67.47
2023-08-10T21:31:24.256Z,67.47
2023-08-10T21:33:54.498Z,68.03
2023-08-10T21:36:23.070Z,67.76
2023-08-10T21:38:55.170Z,68.20
2023-08-10T21:41:24.533Z,68.00
2023-08-10T21:43:55.165Z,69.83
2023-08-10T21:46:23.687Z,70.69
2023-08-10T21:48:52.024Z,70.37
2023-08-10T21:51:20.821Z,68.79
2023-08-10T21:53:49.085Z,70.23
2023-08-10T21:56:28.733Z,71.35
2023-08-10T21:59:00.994Z,70.10
2023-08-10T22:01:29.679Z,70.08
2023-08-10T22:03:58.059Z,70.60
2023-08-10T22:06:28.383Z,70.55
2023-08-10T22:08:56.558Z,71.52
2023-08-10T22:11:27.288Z,71.62
2023-08-10T22:13:55.713Z,71.27
2023-08-10T22:16:24.407Z,72.84
2023-08-10T22:18:54.714Z,71.57
2023-08-10T22:21:24.075Z,70.82
2023-08-10T22:23:52.254Z,71.37
2023-08-10T22:26:20.632Z,70.47
2023-08-10T22:28:49.820Z,72.38
2023-08-10T22:31:18.013Z,72.87
2023-08-10T22:33:47.024Z,70.98
2023-08-10T22:36:18.260Z,71.53
2023-08-10T22:38:46.952Z,73.14
2023-08-10T22:41:19.844Z,71.84
2023-08-10T22:43:48.070Z,73.13
2023-08-10T22:46:16.466Z,72.82
2023-08-10T22:48:44.520Z,73.29
2023-08-10T22:51:12.498Z,72.88
2023-08-10T22:53:40.507Z,71.54
2023-08-10T22:56:08.421Z,72.57
2023-08-10T22:58:36.394Z,72.92
2023-08-10T23:01:05.597Z,72.60
2023-08-10T23:03:46.872Z,73.53
2023-08-10T23:06:15.041Z,74.30
2023-08-10T23:08:43.213Z,72.99
2023-08-10T23:11:11.180Z,74.35
2023-08-10T23:13:39.044Z,73.99
2023-08-10T23:16:08.715Z,73.97
2023-08-10T23:18:36.721Z,74.71
2023-08-10T23:21:04.915Z,75.04
2023-08-10T23:23:33.189Z,75.69
2023-08-10T23:26:01.089Z,75.47
2023-08-10T23:28:29.027Z,75.02
2023-08-10T23:30:57.094Z,75.55
2023-08-10T23:33:25.066Z,74.03
2023-08-10T23:35:53.661Z,74.02
2023-08-10T23:38:21.623Z,72.95
2023-08-10T23:40:49.579Z,74.58
2023-08-10T23:43:19.090Z,74.79
2023-08-10T23:45:47.567Z,74.57
2023-08-10T23:48:16.358Z,75.67
2023-08-10T23:50:44.317Z,74.50
2023-08-10T23:53:12.186Z,75.76
2023-08-10T23:55:40.868Z,73.51
2023-08-10T23:58:08.836Z,72.71
